sensor_id;sensor_type;location;lat;lon;timestamp;pressure;altitude;pressure_sealevel;temperature;humidity
29215;BME280;16252;49.816;7.964;2023-07-13T00:00:10;99888.06;;;23.60;36.69
29215;BME280;16252;49.816;7.964;2023-07-13T00:02:36;99912.03;;;23.71;36.74
29215;BME280;16252;49.816;7.964;2023-07-13T00:05:01;99951.03;;;23.93;37.12
29215;BME280;16252;49.816;7.964;2023-07-13T00:07:27;99936.69;;;23.85;36.75
29215;BME280;16252;49.816;7.964;2023-07-13T00:09:52;99925.31;;;23.74;37.44
29215;BME280;16252;49.816;7.964;2023-07-13T00:12:27;99911.88;;;23.73;37.29
29215;BME280;16252;49.816;7.964;2023-07-13T00:14:53;99936.44;;;23.73;37.23
29215;BME280;16252;49.816;7.964;2023-07-13T00:17:18;99959.59;;;23.84;37.45
29215;BME280;16252;49.816;7.964;2023-07-13T00:19:43;99934.06;;;23.63;37.63
29215;BME280;16252;49.816;7.964;2023-07-13T00:22:09;99944.38;;;23.68;37.84
29215;BME280;16252;49.816;7.964;2023-07-13T00:24:34;99975.53;;;23.73;37.76
29215;BME280;16252;49.816;7.964;2023-07-13T00:27:01;99948.03;;;23.47;38.01
29215;BME280;16252;49.816;7.964;2023-07-13T00:29:26;99929.88;;;23.26;37.98
29215;BME280;16252;49.816;7.964;2023-07-13T00:31:51;99931.56;;;23.27;38.05
29215;BME280;16252;49.816;7.964;2023-07-13T00:34:17;99964.56;;;23.32;38.15
29215;BME280;16252;49.816;7.964;2023-07-13T00:36:42;99983.06;;;23.36;38.16
29215;BME280;16252;49.816;7.964;2023-07-13T00:39:07;99972.06;;;23.23;38.20
29215;BME280;16252;49.816;7.964;2023-07-13T00:41:32;99987.63;;;23.23;38.54
29215;BME280;16252;49.816;7.964;2023-07-13T00:43:58;99973.47;;;23.12;38.30
29215;BME280;16252;49.816;7.964;2023-07-13T00:46:27;99999.38;;;23.23;38.39
29215;BME280;16252;49.816;7.964;2023-07-13T00:48:55;99892.63;;;22.48;38.23
29215;BME280;16252;49.816;7.964;2023-07-13T00:51:27;100008.38;;;23.17;38.37
29215;BME280;16252;49.816;7.964;2023-07-13T00:53:54;100012.72;;;23.11;38.20
29215;BME280;16252;49.816;7.964;2023-07-13T00:56:22;99985.44;;;22.90;38.79
29215;BME280;16252;49.816;7.964;2023-07-13T00:58:47;100012.22;;;23.01;39.00
29215;BME280;16252;49.816;7.964;2023-07-13T01:01:13;99960.59;;;22.78;39.11
29215;BME280;16252;49.816;7.964;2023-07-13T01:03:38;99980.44;;;22.93;39.13
29215;BME280;16252;49.816;7.964;2023-07-13T01:06:05;99999.22;;;23.03;39.10
29215;BME280;16252;49.816;7.964;2023-07-13T01:08:31;99969.28;;;22.88;39.03
29215;BME280;16252;49.816;7.964;2023-07-13T01:10:57;99997.97;;;23.06;39.09
29215;BME280;16252;49.816;7.964;2023-07-13T01:13:24;99923.03;;;22.52;39.05
29215;BME280;16252;49.816;7.964;2023-07-13T01:15:51;99993.13;;;23.01;38.92
29215;BME280;16252;49.816;7.964;2023-07-13T01:18:22;100009.53;;;23.08;39.01
29215;BME280;16252;49.816;7.964;2023-07-13T01:20:54;100007.81;;;23.00;39.24
29215;BME280;16252;49.816;7.964;2023-07-13T01:23:20;99982.81;;;22.75;39.16
29215;BME280;16252;49.816;7.964;2023-07-13T01:25:46;100002.16;;;22.80;39.28
29215;BME280;16252;49.816;7.964;2023-07-13T01:28:11;100004.63;;;22.75;39.28
29215;BME280;16252;49.816;7.964;2023-07-13T01:30:38;99967.25;;;22.47;39.21
29215;BME280;16252;49.816;7.964;2023-07-13T01:33:08;99900.13;;;22.03;39.39
29215;BME280;16252;49.816;7.964;2023-07-13T01:35:35;100001.78;;;22.62;39.39
29215;BME280;16252;49.816;7.964;2023-07-13T01:38:00;100005.53;;;22.61;39.42
29215;BME280;16252;49.816;7.964;2023-07-13T01:40:27;99997.22;;;22.47;39.42
29215;BME280;16252;49.816;7.964;2023-07-13T01:42:52;100008.34;;;22.46;39.51
29215;BME280;16252;49.816;7.964;2023-07-13T01:45:17;99995.78;;;22.30;39.80
29215;BME280;16252;49.816;7.964;2023-07-13T01:47:43;100024.06;;;22.44;39.80
29215;BME280;16252;49.816;7.964;2023-07-13T01:50:08;99998.53;;;22.30;39.88
29215;BME280;16252;49.816;7.964;2023-07-13T01:52:34;100001.72;;;22.34;40.16
29215;BME280;16252;49.816;7.964;2023-07-13T01:54:59;100015.78;;;22.37;40.10
29215;BME280;16252;49.816;7.964;2023-07-13T01:57:24;99957.09;;;21.98;40.26
29215;BME280;16252;49.816;7.964;2023-07-13T01:59:50;100000.31;;;22.23;40.20
29215;BME280;16252;49.816;7.964;2023-07-13T02:02:15;99982.97;;;22.09;40.50
29215;BME280;16252;49.816;7.964;2023-07-13T02:04:40;99998.94;;;22.12;40.22
29215;BME280;16252;49.816;7.964;2023-07-13T02:07:06;99991.72;;;22.04;40.20
29215;BME280;16252;49.816;7.964;2023-07-13T02:09:32;100009.09;;;22.03;40.45
29215;BME280;16252;49.816;7.964;2023-07-13T02:11:57;99980.13;;;21.81;40.40
29215;BME280;16252;49.816;7.964;2023-07-13T02:14:22;100011.56;;;21.98;40.36
29215;BME280;16252;49.816;7.964;2023-07-13T02:16:48;99991.03;;;21.81;40.62
29215;BME280;16252;49.816;7.964;2023-07-13T02:19:13;100007.25;;;21.89;40.69
29215;BME280;16252;49.816;7.964;2023-07-13T02:21:39;100030.06;;;22.03;40.94
29215;BME280;16252;49.816;7.964;2023-07-13T02:24:04;100011.34;;;22.00;40.72
29215;BME280;16252;49.816;7.964;2023-07-13T02:26:29;99976.66;;;21.72;40.77
29215;BME280;16252;49.816;7.964;2023-07-13T02:28:55;99988.41;;;21.73;40.87
29215;BME280;16252;49.816;7.964;2023-07-13T02:31:20;100016.47;;;21.88;40.88
29215;BME280;16252;49.816;7.964;2023-07-13T02:33:45;100006.69;;;21.79;40.66
29215;BME280;16252;49.816;7.964;2023-07-13T02:36:12;100016.19;;;21.83;40.96
29215;BME280;16252;49.816;7.964;2023-07-13T02:38:39;100019.53;;;21.85;40.95
29215;BME280;16252;49.816;7.964;2023-07-13T02:41:06;99868.66;;;20.84;40.84
29215;BME280;16252;49.816;7.964;2023-07-13T02:43:32;100003.81;;;21.66;40.97
29215;BME280;16252;49.816;7.964;2023-07-13T02:45:59;99914.91;;;21.13;40.84
29215;BME280;16252;49.816;7.964;2023-07-13T02:48:29;100000.59;;;21.62;41.07
29215;BME280;16252;49.816;7.964;2023-07-13T02:50:54;100009.25;;;21.66;41.11
29215;BME280;16252;49.816;7.964;2023-07-13T02:53:19;99987.66;;;21.49;40.95
29215;BME280;16252;49.816;7.964;2023-07-13T02:55:44;99984.00;;;21.42;40.93
29215;BME280;16252;49.816;7.964;2023-07-13T02:58:13;100007.66;;;21.56;41.03
29215;BME280;16252;49.816;7.964;2023-07-13T03:00:42;100012.38;;;21.62;41.33
29215;BME280;16252;49.816;7.964;2023-07-13T03:03:07;99970.28;;;21.35;41.35
29215;BME280;16252;49.816;7.964;2023-07-13T03:05:32;99977.16;;;21.46;41.23
29215;BME280;16252;49.816;7.964;2023-07-13T03:07:57;99934.44;;;21.17;41.12
29215;BME280;16252;49.816;7.964;2023-07-13T03:10:23;99992.53;;;21.54;41.17
29215;BME280;16252;49.816;7.964;2023-07-13T03:12:48;99996.50;;;21.51;41.19
29215;BME280;16252;49.816;7.964;2023-07-13T03:15:13;100017.72;;;21.56;41.18
29215;BME280;16252;49.816;7.964;2023-07-13T03:17:39;99996.78;;;21.41;41.36
29215;BME280;16252;49.816;7.964;2023-07-13T03:20:04;99945.50;;;21.00;41.39
29215;BME280;16252;49.816;7.964;2023-07-13T03:22:30;99982.84;;;21.21;41.54
29215;BME280;16252;49.816;7.964;2023-07-13T03:24:56;100000.22;;;21.20;41.69
29215;BME280;16252;49.816;7.964;2023-07-13T03:27:21;100050.38;;;21.41;41.52
29215;BME280;16252;49.816;7.964;2023-07-13T03:29:46;99988.63;;;21.04;41.82
29215;BME280;16252;49.816;7.964;2023-07-13T03:32:12;100032.31;;;21.25;41.72
29215;BME280;16252;49.816;7.964;2023-07-13T03:34:37;100041.13;;;21.27;41.84
29215;BME280;16252;49.816;7.964;2023-07-13T03:37:02;100056.03;;;21.31;42.04
29215;BME280;16252;49.816;7.964;2023-07-13T03:39:28;100030.59;;;21.09;41.89
29215;BME280;16252;49.816;7.964;2023-07-13T03:41:53;100068.41;;;21.19;42.17
29215;BME280;16252;49.816;7.964;2023-07-13T03:44:19;100054.78;;;21.04;42.33
29215;BME280;16252;49.816;7.964;2023-07-13T03:46:44;100018.91;;;20.86;42.03
29215;BME280;16252;49.816;7.964;2023-07-13T03:49:10;100045.38;;;20.92;42.40
29215;BME280;16252;49.816;7.964;2023-07-13T03:51:35;100060.94;;;20.98;42.58
29215;BME280;16252;49.816;7.964;2023-07-13T03:54:00;99915.03;;;20.06;42.72
29215;BME280;16252;49.816;7.964;2023-07-13T03:56:27;100049.00;;;20.84;42.60
29215;BME280;16252;49.816;7.964;2023-07-13T03:58:53;100066.09;;;20.93;42.73
29215;BME280;16252;49.816;7.964;2023-07-13T04:01:20;100070.16;;;20.97;42.72
29215;BME280;16252;49.816;7.964;2023-07-13T04:03:46;99971.56;;;20.34;42.84
29215;BME280;16252;49.816;7.964;2023-07-13T04:06:18;100056.59;;;20.89;42.74
29215;BME280;16252;49.816;7.964;2023-07-13T04:08:52;100069.22;;;21.05;42.93
29215;BME280;16252;49.816;7.964;2023-07-13T04:11:19;100046.84;;;20.80;43.13
29215;BME280;16252;49.816;7.964;2023-07-13T04:13:45;100066.00;;;21.01;43.20
29215;BME280;16252;49.816;7.964;2023-07-13T04:16:10;100047.34;;;20.98;43.03
29215;BME280;16252;49.816;7.964;2023-07-13T04:18:35;100050.91;;;20.98;43.13
29215;BME280;16252;49.816;7.964;2023-07-13T04:21:01;100063.78;;;21.05;43.49
29215;BME280;16252;49.816;7.964;2023-07-13T04:23:26;100055.81;;;21.03;43.88
29215;BME280;16252;49.816;7.964;2023-07-13T04:25:52;100044.81;;;20.96;43.71
29215;BME280;16252;49.816;7.964;2023-07-13T04:28:22;100044.75;;;21.05;43.91
29215;BME280;16252;49.816;7.964;2023-07-13T04:30:49;100027.25;;;20.84;43.96
29215;BME280;16252;49.816;7.964;2023-07-13T04:33:14;100012.69;;;20.77;43.89
29215;BME280;16252;49.816;7.964;2023-07-13T04:35:42;100068.09;;;21.14;43.89
29215;BME280;16252;49.816;7.964;2023-07-13T04:38:07;100056.09;;;21.08;43.93
29215;BME280;16252;49.816;7.964;2023-07-13T04:40:33;100032.25;;;20.95;43.91
29215;BME280;16252;49.816;7.964;2023-07-13T04:42:59;100046.25;;;21.07;43.81
29215;BME280;16252;49.816;7.964;2023-07-13T04:45:37;100068.97;;;21.29;43.63
29215;BME280;16252;49.816;7.964;2023-07-13T04:48:03;100044.53;;;21.06;43.93
29215;BME280;16252;49.816;7.964;2023-07-13T04:50:28;100058.38;;;21.19;43.80
29215;BME280;16252;49.816;7.964;2023-07-13T04:52:53;100054.44;;;21.22;43.90
29215;BME280;16252;49.816;7.964;2023-07-13T04:55:19;100083.03;;;21.41;44.24
29215;BME280;16252;49.816;7.964;2023-07-13T04:57:46;100041.78;;;21.14;44.09
29215;BME280;16252;49.816;7.964;2023-07-13T05:00:12;100054.25;;;21.24;43.55
29215;BME280;16252;49.816;7.964;2023-07-13T05:02:38;100069.28;;;21.34;44.27
29215;BME280;16252;49.816;7.964;2023-07-13T05:05:04;100099.94;;;21.51;44.06
29215;BME280;16252;49.816;7.964;2023-07-13T05:07:30;100078.78;;;21.38;43.84
29215;BME280;16252;49.816;7.964;2023-07-13T05:09:57;100078.41;;;21.41;43.93
29215;BME280;16252;49.816;7.964;2023-07-13T05:12:26;100082.47;;;21.46;43.92
29215;BME280;16252;49.816;7.964;2023-07-13T05:14:52;100041.97;;;21.28;43.86
29215;BME280;16252;49.816;7.964;2023-07-13T05:17:17;100055.66;;;21.34;43.80
29215;BME280;16252;49.816;7.964;2023-07-13T05:19:43;100056.88;;;21.32;44.11
29215;BME280;16252;49.816;7.964;2023-07-13T05:22:08;100045.16;;;21.31;44.27
29215;BME280;16252;49.816;7.964;2023-07-13T05:24:33;100080.22;;;21.49;44.61
29215;BME280;16252;49.816;7.964;2023-07-13T05:26:59;100087.94;;;21.60;44.22
29215;BME280;16252;49.816;7.964;2023-07-13T05:29:24;100107.84;;;21.76;44.17
29215;BME280;16252;49.816;7.964;2023-07-13T05:31:49;100091.03;;;21.72;43.39
29215;BME280;16252;49.816;7.964;2023-07-13T05:34:15;100074.59;;;21.66;42.91
29215;BME280;16252;49.816;7.964;2023-07-13T05:36:41;100094.50;;;21.81;42.67
29215;BME280;16252;49.816;7.964;2023-07-13T05:39:07;100077.69;;;21.77;42.43
29215;BME280;16252;49.816;7.964;2023-07-13T05:41:32;100091.69;;;21.89;42.39
29215;BME280;16252;49.816;7.964;2023-07-13T05:44:00;100101.47;;;21.98;42.45
29215;BME280;16252;49.816;7.964;2023-07-13T05:46:26;100117.69;;;22.06;42.52
29215;BME280;16252;49.816;7.964;2023-07-13T05:48:56;100057.13;;;21.75;42.19
29215;BME280;16252;49.816;7.964;2023-07-13T05:51:21;100116.09;;;22.12;42.39
29215;BME280;16252;49.816;7.964;2023-07-13T05:53:47;100118.44;;;22.15;42.38
29215;BME280;16252;49.816;7.964;2023-07-13T05:56:14;100074.88;;;22.00;42.23
29215;BME280;16252;49.816;7.964;2023-07-13T05:58:40;100075.50;;;22.02;41.95
29215;BME280;16252;49.816;7.964;2023-07-13T06:01:13;100071.38;;;22.06;42.15
29215;BME280;16252;49.816;7.964;2023-07-13T06:03:38;100074.38;;;22.12;41.73
29215;BME280;16252;49.816;7.964;2023-07-13T06:06:05;100115.59;;;22.38;41.38
29215;BME280;16252;49.816;7.964;2023-07-13T06:08:33;100108.75;;;22.42;41.37
29215;BME280;16252;49.816;7.964;2023-07-13T06:11:07;100119.44;;;22.59;41.37
29215;BME280;16252;49.816;7.964;2023-07-13T06:13:33;100121.03;;;22.53;41.42
29215;BME280;16252;49.816;7.964;2023-07-13T06:16:02;100127.41;;;22.60;41.37
29215;BME280;16252;49.816;7.964;2023-07-13T06:18:49;100120.03;;;22.76;41.27
29215;BME280;16252;49.816;7.964;2023-07-13T06:21:23;100083.56;;;22.40;41.33
29215;BME280;16252;49.816;7.964;2023-07-13T06:23:52;100073.13;;;22.44;40.94
29215;BME280;16252;49.816;7.964;2023-07-13T06:26:19;100109.53;;;22.58;41.04
29215;BME280;16252;49.816;7.964;2023-07-13T06:28:45;100111.97;;;22.67;40.71
29215;BME280;16252;49.816;7.964;2023-07-13T06:31:11;100134.00;;;22.87;40.62
29215;BME280;16252;49.816;7.964;2023-07-13T06:33:37;100112.41;;;22.71;40.60
29215;BME280;16252;49.816;7.964;2023-07-13T06:36:04;100128.53;;;22.87;40.75
29215;BME280;16252;49.816;7.964;2023-07-13T06:38:30;100062.66;;;22.47;40.52
29215;BME280;16252;49.816;7.964;2023-07-13T06:40:55;100117.25;;;22.90;40.49
29215;BME280;16252;49.816;7.964;2023-07-13T06:43:20;100110.09;;;22.89;40.38
29215;BME280;16252;49.816;7.964;2023-07-13T06:45:46;100113.09;;;22.94;40.41
29215;BME280;16252;49.816;7.964;2023-07-13T06:48:14;100120.13;;;23.04;40.23
29215;BME280;16252;49.816;7.964;2023-07-13T06:50:42;100145.84;;;23.38;40.28
29215;BME280;16252;49.816;7.964;2023-07-13T06:53:10;100090.00;;;23.12;40.19
29215;BME280;16252;49.816;7.964;2023-07-13T06:55:36;100107.56;;;23.31;40.03
29215;BME280;16252;49.816;7.964;2023-07-13T06:58:02;100114.34;;;23.42;40.14
29215;BME280;16252;49.816;7.964;2023-07-13T07:00:27;100112.13;;;23.52;39.69
29215;BME280;16252;49.816;7.964;2023-07-13T07:02:55;100149.19;;;23.89;39.98
29215;BME280;16252;49.816;7.964;2023-07-13T07:05:21;100111.94;;;23.82;39.42
29215;BME280;16252;49.816;7.964;2023-07-13T07:07:54;100115.63;;;23.95;39.13
29215;BME280;16252;49.816;7.964;2023-07-13T07:10:20;100144.50;;;24.18;39.26
29215;BME280;16252;49.816;7.964;2023-07-13T07:12:45;100122.88;;;24.16;39.12
29215;BME280;16252;49.816;7.964;2023-07-13T07:15:11;100161.72;;;24.47;39.44
29215;BME280;16252;49.816;7.964;2023-07-13T07:17:40;100116.22;;;24.39;39.31
29215;BME280;16252;49.816;7.964;2023-07-13T07:20:06;100120.94;;;24.58;39.40
29215;BME280;16252;49.816;7.964;2023-07-13T07:22:34;100145.03;;;24.90;39.15
29215;BME280;16252;49.816;7.964;2023-07-13T07:25:02;100139.63;;;25.23;38.85
29215;BME280;16252;49.816;7.964;2023-07-13T07:27:27;100143.22;;;25.30;38.64
29215;BME280;16252;49.816;7.964;2023-07-13T07:29:53;100146.59;;;25.45;38.24
29215;BME280;16252;49.816;7.964;2023-07-13T07:32:19;100163.63;;;25.81;38.13
29215;BME280;16252;49.816;7.964;2023-07-13T07:34:45;100154.97;;;26.04;38.56
29215;BME280;16252;49.816;7.964;2023-07-13T07:37:12;100156.50;;;26.58;38.29
29215;BME280;16252;49.816;7.964;2023-07-13T07:39:38;100149.19;;;27.22;37.82
29215;BME280;16252;49.816;7.964;2023-07-13T07:42:04;100159.84;;;28.05;37.30
29215;BME280;16252;49.816;7.964;2023-07-13T07:44:31;100139.22;;;28.70;36.94
29215;BME280;16252;49.816;7.964;2023-07-13T07:46:56;100141.00;;;29.48;35.48
29215;BME280;16252;49.816;7.964;2023-07-13T07:49:21;100121.72;;;30.07;34.59
29215;BME280;16252;49.816;7.964;2023-07-13T07:51:47;100156.50;;;31.01;34.01
29215;BME280;16252;49.816;7.964;2023-07-13T07:54:12;100121.81;;;31.56;33.18
29215;BME280;16252;49.816;7.964;2023-07-13T07:56:38;100147.34;;;32.41;32.20
29215;BME280;16252;49.816;7.964;2023-07-13T07:59:03;100140.63;;;33.02;31.51
29215;BME280;16252;49.816;7.964;2023-07-13T08:01:29;100153.72;;;33.72;30.55
29215;BME280;16252;49.816;7.964;2023-07-13T08:03:54;100165.53;;;34.42;29.72
29215;BME280;16252;49.816;7.964;2023-07-13T08:06:20;100147.63;;;34.80;29.35
29215;BME280;16252;49.816;7.964;2023-07-13T08:08:45;100146.88;;;35.21;28.79
29215;BME280;16252;49.816;7.964;2023-07-13T08:11:11;100138.25;;;35.53;27.93
29215;BME280;16252;49.816;7.964;2023-07-13T08:13:36;100129.34;;;35.76;26.98
29215;BME280;16252;49.816;7.964;2023-07-13T08:16:04;100164.09;;;36.10;27.49
29215;BME280;16252;49.816;7.964;2023-07-13T08:18:30;100158.25;;;36.11;26.39
29215;BME280;16252;49.816;7.964;2023-07-13T08:20:55;100146.25;;;36.00;26.52
29215;BME280;16252;49.816;7.964;2023-07-13T08:23:22;100168.53;;;36.00;26.77
29215;BME280;16252;49.816;7.964;2023-07-13T08:25:54;100159.38;;;35.79;26.74
29215;BME280;16252;49.816;7.964;2023-07-13T08:28:21;100156.91;;;35.63;26.93
29215;BME280;16252;49.816;7.964;2023-07-13T08:30:47;100161.06;;;35.50;26.63
29215;BME280;16252;49.816;7.964;2023-07-13T08:33:23;100158.28;;;35.45;26.89
29215;BME280;16252;49.816;7.964;2023-07-13T08:35:50;100159.41;;;35.49;26.43
29215;BME280;16252;49.816;7.964;2023-07-13T08:38:16;100151.59;;;35.56;26.80
29215;BME280;16252;49.816;7.964;2023-07-13T08:40:42;100149.66;;;35.77;26.65
29215;BME280;16252;49.816;7.964;2023-07-13T08:43:18;100158.47;;;36.20;27.13
29215;BME280;16252;49.816;7.964;2023-07-13T08:49:04;100138.78;;;37.16;27.02
29215;BME280;16252;49.816;7.964;2023-07-13T08:52:01;100157.84;;;37.72;25.68
29215;BME280;16252;49.816;7.964;2023-07-13T08:54:41;100156.81;;;38.21;25.09
29215;BME280;16252;49.816;7.964;2023-07-13T08:57:21;100154.41;;;38.76;24.88
29215;BME280;16252;49.816;7.964;2023-07-13T08:59:49;100140.22;;;39.11;23.42
29215;BME280;16252;49.816;7.964;2023-07-13T09:02:26;100151.19;;;39.59;24.00
29215;BME280;16252;49.816;7.964;2023-07-13T09:17:49;100146.91;;;41.36;20.75
29215;BME280;16252;49.816;7.964;2023-07-13T09:20:30;100148.94;;;41.44;21.67
29215;BME280;16252;49.816;7.964;2023-07-13T09:22:59;100140.97;;;41.37;20.68
29215;BME280;16252;49.816;7.964;2023-07-13T09:25:34;100153.63;;;41.26;20.57
29215;BME280;16252;49.816;7.964;2023-07-13T09:28:13;100161.59;;;41.10;20.74
29215;BME280;16252;49.816;7.964;2023-07-13T09:30:56;100156.97;;;40.78;20.29
29215;BME280;16252;49.816;7.964;2023-07-13T09:33:23;100147.75;;;40.36;20.06
29215;BME280;16252;49.816;7.964;2023-07-13T09:35:49;100154.19;;;39.95;20.18
29215;BME280;16252;49.816;7.964;2023-07-13T09:38:17;100161.34;;;39.55;20.65
29215;BME280;16252;49.816;7.964;2023-07-13T09:40:49;100160.38;;;39.27;20.27
29215;BME280;16252;49.816;7.964;2023-07-13T09:43:18;100134.75;;;38.81;20.68
29215;BME280;16252;49.816;7.964;2023-07-13T09:45:46;100154.63;;;38.61;20.75
29215;BME280;16252;49.816;7.964;2023-07-13T09:48:14;100139.44;;;38.24;20.88
29215;BME280;16252;49.816;7.964;2023-07-13T09:50:41;100134.28;;;37.83;20.92
29215;BME280;16252;49.816;7.964;2023-07-13T09:53:15;100146.50;;;37.63;21.58
29215;BME280;16252;49.816;7.964;2023-07-13T09:55:43;100155.72;;;37.24;21.30
29215;BME280;16252;49.816;7.964;2023-07-13T09:58:12;100133.69;;;36.83;21.32
29215;BME280;16252;49.816;7.964;2023-07-13T10:00:38;100143.88;;;36.49;21.61
29215;BME280;16252;49.816;7.964;2023-07-13T10:03:20;100129.84;;;36.09;21.96
29215;BME280;16252;49.816;7.964;2023-07-13T10:05:48;100138.25;;;35.73;21.82
29215;BME280;16252;49.816;7.964;2023-07-13T10:08:35;100149.94;;;35.65;22.58
29215;BME280;16252;49.816;7.964;2023-07-13T10:11:12;100141.03;;;35.22;22.56
29215;BME280;16252;49.816;7.964;2023-07-13T10:13:44;100113.72;;;34.93;22.35
29215;BME280;16252;49.816;7.964;2023-07-13T10:16:10;100143.69;;;34.71;22.67
29215;BME280;16252;49.816;7.964;2023-07-13T10:18:46;100143.66;;;34.61;22.83
29215;BME280;16252;49.816;7.964;2023-07-13T10:21:18;100139.66;;;34.31;22.51
29215;BME280;16252;49.816;7.964;2023-07-13T10:23:53;100142.06;;;34.12;22.69
29215;BME280;16252;49.816;7.964;2023-07-13T10:26:23;100145.50;;;33.92;23.03
29215;BME280;16252;49.816;7.964;2023-07-13T10:28:53;100144.03;;;33.74;23.18
29215;BME280;16252;49.816;7.964;2023-07-13T10:31:21;100137.00;;;33.61;22.78
29215;BME280;16252;49.816;7.964;2023-07-13T10:33:46;100126.34;;;33.48;23.13
29215;BME280;16252;49.816;7.964;2023-07-13T10:36:16;100113.75;;;33.35;23.02
29215;BME280;16252;49.816;7.964;2023-07-13T10:38:43;100130.44;;;33.40;22.95
29215;BME280;16252;49.816;7.964;2023-07-13T10:41:12;100129.81;;;33.33;23.14
29215;BME280;16252;49.816;7.964;2023-07-13T10:43:46;100137.22;;;33.22;23.00
29215;BME280;16252;49.816;7.964;2023-07-13T10:46:17;100147.88;;;33.09;22.62
29215;BME280;16252;49.816;7.964;2023-07-13T10:48:45;100127.91;;;32.79;22.69
29215;BME280;16252;49.816;7.964;2023-07-13T10:51:14;100133.91;;;32.71;23.08
29215;BME280;16252;49.816;7.964;2023-07-13T10:53:40;100105.25;;;32.38;23.47
29215;BME280;16252;49.816;7.964;2023-07-13T10:56:29;100135.66;;;32.55;23.85
29215;BME280;16252;49.816;7.964;2023-07-13T10:59:25;100142.25;;;32.49;23.78
29215;BME280;16252;49.816;7.964;2023-07-13T11:02:22;100145.94;;;32.38;24.22
29215;BME280;16252;49.816;7.964;2023-07-13T11:04:49;100148.22;;;32.19;23.78
29215;BME280;16252;49.816;7.964;2023-07-13T11:07:26;100129.97;;;32.01;24.02
29215;BME280;16252;49.816;7.964;2023-07-13T11:09:55;100149.59;;;32.00;23.85
29215;BME280;16252;49.816;7.964;2023-07-13T11:17:46;100151.88;;;31.86;24.29
29215;BME280;16252;49.816;7.964;2023-07-13T11:22:43;100148.00;;;31.70;24.78
29215;BME280;16252;49.816;7.964;2023-07-13T11:25:25;100149.09;;;31.69;24.46
29215;BME280;16252;49.816;7.964;2023-07-13T11:35:36;100121.53;;;31.23;24.99
29215;BME280;16252;49.816;7.964;2023-07-13T11:38:12;100140.22;;;31.33;25.03
29215;BME280;16252;49.816;7.964;2023-07-13T11:40:41;100127.22;;;31.17;24.62
29215;BME280;16252;49.816;7.964;2023-07-13T11:43:06;100132.31;;;31.08;25.05
29215;BME280;16252;49.816;7.964;2023-07-13T11:45:32;100105.34;;;30.98;24.90
29215;BME280;16252;49.816;7.964;2023-07-13T11:47:58;100138.16;;;31.12;25.23
29215;BME280;16252;49.816;7.964;2023-07-13T11:50:25;100135.50;;;31.00;25.31
29215;BME280;16252;49.816;7.964;2023-07-13T11:52:54;100135.00;;;31.03;25.25
29215;BME280;16252;49.816;7.964;2023-07-13T11:55:21;100151.41;;;31.26;25.19
29215;BME280;16252;49.816;7.964;2023-07-13T11:57:57;100144.47;;;31.07;25.83
29215;BME280;16252;49.816;7.964;2023-07-13T12:00:26;100146.78;;;30.98;25.74
29215;BME280;16252;49.816;7.964;2023-07-13T12:02:53;100152.75;;;31.24;25.72
29215;BME280;16252;49.816;7.964;2023-07-13T12:05:20;100153.00;;;31.05;25.51
29215;BME280;16252;49.816;7.964;2023-07-13T12:07:46;100151.25;;;30.99;25.33
29215;BME280;16252;49.816;7.964;2023-07-13T12:10:19;100153.00;;;31.05;25.40
29215;BME280;16252;49.816;7.964;2023-07-13T12:12:48;100118.97;;;30.76;25.35
29215;BME280;16252;49.816;7.964;2023-07-13T12:15:14;100143.72;;;30.83;25.40
29215;BME280;16252;49.816;7.964;2023-07-13T12:17:40;100158.84;;;30.92;25.39
29215;BME280;16252;49.816;7.964;2023-07-13T12:20:33;100150.53;;;30.92;25.44
29215;BME280;16252;49.816;7.964;2023-07-13T12:23:00;100160.91;;;30.85;25.57
29215;BME280;16252;49.816;7.964;2023-07-13T12:25:27;100141.25;;;30.70;25.85
29215;BME280;16252;49.816;7.964;2023-07-13T12:27:53;100140.41;;;30.69;27.06
29215;BME280;16252;49.816;7.964;2023-07-13T12:30:31;100169.78;;;30.87;26.08
29215;BME280;16252;49.816;7.964;2023-07-13T12:33:12;100166.66;;;30.83;25.86
29215;BME280;16252;49.816;7.964;2023-07-13T12:35:45;100154.59;;;30.61;25.92
29215;BME280;16252;49.816;7.964;2023-07-13T12:38:12;100152.13;;;30.48;25.67
29215;BME280;16252;49.816;7.964;2023-07-13T12:40:37;100164.59;;;30.50;25.86
29215;BME280;16252;49.816;7.964;2023-07-13T12:43:04;100167.03;;;30.47;26.03
29215;BME280;16252;49.816;7.964;2023-07-13T12:45:31;100158.75;;;30.35;25.91
29215;BME280;16252;49.816;7.964;2023-07-13T12:48:03;100159.47;;;30.30;25.95
29215;BME280;16252;49.816;7.964;2023-07-13T12:50:36;100147.50;;;30.24;25.56
29215;BME280;16252;49.816;7.964;2023-07-13T12:53:05;100166.81;;;30.24;25.85
29215;BME280;16252;49.816;7.964;2023-07-13T12:55:43;100150.13;;;30.08;26.00
29215;BME280;16252;49.816;7.964;2023-07-13T12:58:18;100157.56;;;30.07;26.34
29215;BME280;16252;49.816;7.964;2023-07-13T13:00:49;100172.19;;;30.19;26.17
29215;BME280;16252;49.816;7.964;2023-07-13T13:03:30;100174.94;;;30.19;26.48
29215;BME280;16252;49.816;7.964;2023-07-13T13:06:05;100151.09;;;30.13;26.24
29215;BME280;16252;49.816;7.964;2023-07-13T13:08:33;100110.13;;;29.81;26.47
29215;BME280;16252;49.816;7.964;2023-07-13T13:10:58;100153.97;;;30.07;26.47
29215;BME280;16252;49.816;7.964;2023-07-13T13:13:24;100147.84;;;30.05;26.68
29215;BME280;16252;49.816;7.964;2023-07-13T13:15:50;100143.88;;;30.12;26.47
29215;BME280;16252;49.816;7.964;2023-07-13T13:18:17;100147.97;;;30.10;26.57
29215;BME280;16252;49.816;7.964;2023-07-13T13:20:43;100152.78;;;30.14;26.23
29215;BME280;16252;49.816;7.964;2023-07-13T13:23:12;100172.56;;;30.35;26.24
29215;BME280;16252;49.816;7.964;2023-07-13T13:25:39;100127.81;;;30.09;26.10
29215;BME280;16252;49.816;7.964;2023-07-13T13:28:04;100163.69;;;30.33;25.81